sensor_id;sensor_type;location;lat;lon;timestamp;P1;P2;P0
72485;PMS5003;60509;47.308;-122.428;2022-12-08T00:00:51;4602;4602;
72485;PMS5003;60509;47.308;-122.428;2022-12-08T00:03:17;4643;4643;
72485;PMS5003;60509;47.308;-122.428;2022-12-08T00:05:48;4622;4622;
72485;PMS5003;60509;47.308;-122.428;2022-12-08T00:08:08;4636;4636;
72485;PMS5003;60509;47.308;-122.428;2022-12-08T00:10:33;4615;4615;
72485;PMS5003;60509;47.308;-122.428;2022-12-08T00:12:59;4622;4622;
72485;PMS5003;60509;47.308;-122.428;2022-12-08T00:15:24;4609;4609;
72485;PMS5003;60509;47.308;-122.428;2022-12-08T00:17:50;4643;4643;
72485;PMS5003;60509;47.308;-122.428;2022-12-08T00:20:15;4629;4629;
72485;PMS5003;60509;47.308;-122.428;2022-12-08T00:22:41;4629;4629;
72485;PMS5003;60509;47.308;-122.428;2022-12-08T00:25:06;4595;4595;
72485;PMS5003;60509;47.308;-122.428;2022-12-08T00:27:31;4609;4609;
72485;PMS5003;60509;47.308;-122.428;2022-12-08T00:29:57;4622;4622;
72485;PMS5003;60509;47.308;-122.428;2022-12-08T00:32:22;4636;4636;
72485;PMS5003;60509;47.308;-122.428;2022-12-08T00:34:48;4636;4636;
72485;PMS5003;60509;47.308;-122.428;2022-12-08T00:37:14;4615;4615;
72485;PMS5003;60509;47.308;-122.428;2022-12-08T00:39:39;4615;4615;
72485;PMS5003;60509;47.308;-122.428;2022-12-08T00:42:10;4629;4629;
72485;PMS5003;60509;47.308;-122.428;2022-12-08T00:44:30;4609;4609;
72485;PMS5003;60509;47.308;-122.428;2022-12-08T00:46:55;4622;4622;
72485;PMS5003;60509;47.308;-122.428;2022-12-08T00:49:21;4629;4629;
72485;PMS5003;60509;47.308;-122.428;2022-12-08T00:51:46;4636;4636;
72485;PMS5003;60509;47.308;-122.428;2022-12-08T00:54:12;4650;4650;
72485;PMS5003;60509;47.308;-122.428;2022-12-08T00:56:37;4643;4643;
72485;PMS5003;60509;47.308;-122.428;2022-12-08T00:59:03;4622;4622;
72485;PMS5003;60509;47.308;-122.428;2022-12-08T01:01:28;4629;4629;
72485;PMS5003;60509;47.308;-122.428;2022-12-08T01:03:54;4636;4636;
72485;PMS5003;60509;47.308;-122.428;2022-12-08T01:06:19;4629;4629;
72485;PMS5003;60509;47.308;-122.428;2022-12-08T01:08:45;4629;4629;
72485;PMS5003;60509;47.308;-122.428;2022-12-08T01:11:11;4636;4636;
72485;PMS5003;60509;47.308;-122.428;2022-12-08T01:13:36;4629;4629;
72485;PMS5003;60509;47.308;-122.428;2022-12-08T01:16:01;4643;4643;
72485;PMS5003;60509;47.308;-122.428;2022-12-08T01:18:27;4636;4636;
72485;PMS5003;60509;47.308;-122.428;2022-12-08T01:20:52;4650;4650;
72485;PMS5003;60509;47.308;-122.428;2022-12-08T01:23:18;4643;4643;
72485;PMS5003;60509;47.308;-122.428;2022-12-08T01:25:43;4636;4636;
72485;PMS5003;60509;47.308;-122.428;2022-12-08T01:28:08;4643;4643;
72485;PMS5003;60509;47.308;-122.428;2022-12-08T01:30:36;4636;4636;
72485;PMS5003;60509;47.308;-122.428;2022-12-08T01:32:59;4629;4629;
72485;PMS5003;60509;47.308;-122.428;2022-12-08T01:35:25;4622;4622;
72485;PMS5003;60509;47.308;-122.428;2022-12-08T01:37:51;4622;4622;
72485;PMS5003;60509;47.308;-122.428;2022-12-08T01:40:16;4629;4629;
72485;PMS5003;60509;47.308;-122.428;2022-12-08T01:42:41;4602;4602;
72485;PMS5003;60509;47.308;-122.428;2022-12-08T01:45:12;4568;4568;
72485;PMS5003;60509;47.308;-122.428;2022-12-08T01:47:35;4595;4595;
72485;PMS5003;60509;47.308;-122.428;2022-12-08T01:49:58;4595;4595;
72485;PMS5003;60509;47.308;-122.428;2022-12-08T01:52:25;4622;4622;
72485;PMS5003;60509;47.308;-122.428;2022-12-08T01:54:50;4629;4629;
72485;PMS5003;60509;47.308;-122.428;2022-12-08T01:57:16;4615;4615;
72485;PMS5003;60509;47.308;-122.428;2022-12-08T01:59:41;4629;4629;
72485;PMS5003;60509;47.308;-122.428;2022-12-08T02:02:05;4629;4629;
72485;PMS5003;60509;47.308;-122.428;2022-12-08T02:04:31;4615;4615;
72485;PMS5003;60509;47.308;-122.428;2022-12-08T02:06:56;4568;4568;
72485;PMS5003;60509;47.308;-122.428;2022-12-08T02:09:22;4615;4615;
72485;PMS5003;60509;47.308;-122.428;2022-12-08T02:11:48;4636;4636;
72485;PMS5003;60509;47.308;-122.428;2022-12-08T02:14:13;4629;4629;
72485;PMS5003;60509;47.308;-122.428;2022-12-08T02:16:40;4595;4595;
72485;PMS5003;60509;47.308;-122.428;2022-12-08T02:19:11;4643;4643;
72485;PMS5003;60509;47.308;-122.428;2022-12-08T02:21:31;4643;4643;
72485;PMS5003;60509;47.308;-122.428;2022-12-08T02:23:58;4622;4622;
72485;PMS5003;60509;47.308;-122.428;2022-12-08T02:26:32;4609;4609;
72485;PMS5003;60509;47.308;-122.428;2022-12-08T02:28:53;4615;4615;
72485;PMS5003;60509;47.308;-122.428;2022-12-08T02:31:15;4615;4615;
72485;PMS5003;60509;47.308;-122.428;2022-12-08T02:33:43;4622;4622;
72485;PMS5003;60509;47.308;-122.428;2022-12-08T02:36:04;4602;4602;
72485;PMS5003;60509;47.308;-122.428;2022-12-08T02:38:31;4609;4609;
72485;PMS5003;60509;47.308;-122.428;2022-12-08T02:40:59;4609;4609;
72485;PMS5003;60509;47.308;-122.428;2022-12-08T02:43:21;4615;4615;
72485;PMS5003;60509;47.308;-122.428;2022-12-08T02:45:46;4636;4636;
72485;PMS5003;60509;47.308;-122.428;2022-12-08T02:48:11;4622;4622;
72485;PMS5003;60509;47.308;-122.428;2022-12-08T02:50:36;4568;4568;
72485;PMS5003;60509;47.308;-122.428;2022-12-08T02:53:01;4609;4609;
72485;PMS5003;60509;47.308;-122.428;2022-12-08T02:55:28;4602;4602;
72485;PMS5003;60509;47.308;-122.428;2022-12-08T02:57:58;4602;4602;
72485;PMS5003;60509;47.308;-122.428;2022-12-08T03:00:19;4595;4595;
72485;PMS5003;60509;47.308;-122.428;2022-12-08T03:02:46;4568;4568;
72485;PMS5003;60509;47.308;-122.428;2022-12-08T03:05:11;4595;4595;
72485;PMS5003;60509;47.308;-122.428;2022-12-08T03:07:36;4615;4615;
72485;PMS5003;60509;47.308;-122.428;2022-12-08T03:10:02;4609;4609;
72485;PMS5003;60509;47.308;-122.428;2022-12-08T03:12:27;4615;4615;
72485;PMS5003;60509;47.308;-122.428;2022-12-08T03:14:52;4622;4622;
72485;PMS5003;60509;47.308;-122.428;2022-12-08T03:17:16;4609;4609;
72485;PMS5003;60509;47.308;-122.428;2022-12-08T03:19:42;4657;4657;
72485;PMS5003;60509;47.308;-122.428;2022-12-08T03:22:07;4615;4615;
72485;PMS5003;60509;47.308;-122.428;2022-12-08T03:24:34;4609;4609;
72485;PMS5003;60509;47.308;-122.428;2022-12-08T03:26:58;4582;4582;
72485;PMS5003;60509;47.308;-122.428;2022-12-08T03:29:24;4582;4582;
72485;PMS5003;60509;47.308;-122.428;2022-12-08T03:31:51;4588;4588;
72485;PMS5003;60509;47.308;-122.428;2022-12-08T03:34:15;4582;4582;
72485;PMS5003;60509;47.308;-122.428;2022-12-08T03:36:40;4542;4542;
72485;PMS5003;60509;47.308;-122.428;2022-12-08T03:39:06;4575;4575;
72485;PMS5003;60509;47.308;-122.428;2022-12-08T03:41:31;4575;4575;
72485;PMS5003;60509;47.308;-122.428;2022-12-08T03:43:57;4575;4575;
72485;PMS5003;60509;47.308;-122.428;2022-12-08T03:46:23;4562;4562;
72485;PMS5003;60509;47.308;-122.428;2022-12-08T03:48:48;4582;4582;
72485;PMS5003;60509;47.308;-122.428;2022-12-08T03:51:13;4602;4602;
72485;PMS5003;60509;47.308;-122.428;2022-12-08T03:53:39;4562;4562;
72485;PMS5003;60509;47.308;-122.428;2022-12-08T03:56:10;4615;4615;
72485;PMS5003;60509;47.308;-122.428;2022-12-08T03:58:30;4595;4595;
72485;PMS5003;60509;47.308;-122.428;2022-12-08T04:00:55;4609;4609;
72485;PMS5003;60509;47.308;-122.428;2022-12-08T04:03:21;4609;4609;
72485;PMS5003;60509;47.308;-122.428;2022-12-08T04:05:46;4595;4595;
72485;PMS5003;60509;47.308;-122.428;2022-12-08T04:08:12;4588;4588;
72485;PMS5003;60509;47.308;-122.428;2022-12-08T04:10:37;4555;4555;
72485;PMS5003;60509;47.308;-122.428;2022-12-08T04:13:03;4622;4622;
72485;PMS5003;60509;47.308;-122.428;2022-12-08T04:15:28;4636;4636;
72485;PMS5003;60509;47.308;-122.428;2022-12-08T04:17:54;4615;4615;
72485;PMS5003;60509;47.308;-122.428;2022-12-08T04:20:19;4588;4588;
72485;PMS5003;60509;47.308;-122.428;2022-12-08T04:22:45;4575;4575;
72485;PMS5003;60509;47.308;-122.428;2022-12-08T04:25:10;4595;4595;
72485;PMS5003;60509;47.308;-122.428;2022-12-08T04:27:36;4588;4588;
72485;PMS5003;60509;47.308;-122.428;2022-12-08T04:30:02;4622;4622;
72485;PMS5003;60509;47.308;-122.428;2022-12-08T04:32:27;4615;4615;
72485;PMS5003;60509;47.308;-122.428;2022-12-08T04:34:52;4615;4615;
72485;PMS5003;60509;47.308;-122.428;2022-12-08T04:37:18;4609;4609;
72485;PMS5003;60509;47.308;-122.428;2022-12-08T04:39:43;4575;4575;
72485;PMS5003;60509;47.308;-122.428;2022-12-08T04:42:09;4588;4588;
72485;PMS5003;60509;47.308;-122.428;2022-12-08T04:44:34;4588;4588;
72485;PMS5003;60509;47.308;-122.428;2022-12-08T04:47:00;4588;4588;
72485;PMS5003;60509;47.308;-122.428;2022-12-08T04:49:26;4582;4582;
72485;PMS5003;60509;47.308;-122.428;2022-12-08T04:51:51;4562;4562;
72485;PMS5003;60509;47.308;-122.428;2022-12-08T04:54:17;4602;4602;
72485;PMS5003;60509;47.308;-122.428;2022-12-08T04:56:42;4602;4602;
72485;PMS5003;60509;47.308;-122.428;2022-12-08T04:59:08;4595;4595;
72485;PMS5003;60509;47.308;-122.428;2022-12-08T05:01:33;4582;4582;
72485;PMS5003;60509;47.308;-122.428;2022-12-08T05:03:59;4588;4588;
72485;PMS5003;60509;47.308;-122.428;2022-12-08T05:06:25;4602;4602;
72485;PMS5003;60509;47.308;-122.428;2022-12-08T05:08:50;4602;4602;
72485;PMS5003;60509;47.308;-122.428;2022-12-08T05:11:16;4588;4588;
72485;PMS5003;60509;47.308;-122.428;2022-12-08T05:13:41;4588;4588;
72485;PMS5003;60509;47.308;-122.428;2022-12-08T05:16:07;4588;4588;
72485;PMS5003;60509;47.308;-122.428;2022-12-08T05:18:32;4595;4595;
72485;PMS5003;60509;47.308;-122.428;2022-12-08T05:20:58;4602;4602;
72485;PMS5003;60509;47.308;-122.428;2022-12-08T05:23:23;4602;4602;
72485;PMS5003;60509;47.308;-122.428;2022-12-08T05:25:49;4602;4602;
72485;PMS5003;60509;47.308;-122.428;2022-12-08T05:28:15;4588;4588;
72485;PMS5003;60509;47.308;-122.428;2022-12-08T05:30:40;4575;4575;
72485;PMS5003;60509;47.308;-122.428;2022-12-08T05:33:06;4588;4588;
72485;PMS5003;60509;47.308;-122.428;2022-12-08T05:35:31;4582;4582;
72485;PMS5003;60509;47.308;-122.428;2022-12-08T05:37:57;4595;4595;
72485;PMS5003;60509;47.308;-122.428;2022-12-08T05:40:22;4602;4602;
72485;PMS5003;60509;47.308;-122.428;2022-12-08T05:42:48;4588;4588;
72485;PMS5003;60509;47.308;-122.428;2022-12-08T05:45:14;4609;4609;
72485;PMS5003;60509;47.308;-122.428;2022-12-08T05:47:39;4548;4548;
72485;PMS5003;60509;47.308;-122.428;2022-12-08T05:50:05;4575;4575;
72485;PMS5003;60509;47.308;-122.428;2022-12-08T05:52:31;4615;4615;
72485;PMS5003;60509;47.308;-122.428;2022-12-08T05:54:55;4609;4609;
72485;PMS5003;60509;47.308;-122.428;2022-12-08T05:57:21;4575;4575;
72485;PMS5003;60509;47.308;-122.428;2022-12-08T05:59:46;4602;4602;
72485;PMS5003;60509;47.308;-122.428;2022-12-08T06:02:12;4588;4588;
72485;PMS5003;60509;47.308;-122.428;2022-12-08T06:04:38;4582;4582;
72485;PMS5003;60509;47.308;-122.428;2022-12-08T06:07:03;4602;4602;
72485;PMS5003;60509;47.308;-122.428;2022-12-08T06:09:29;4609;4609;
72485;PMS5003;60509;47.308;-122.428;2022-12-08T06:11:54;4588;4588;
72485;PMS5003;60509;47.308;-122.428;2022-12-08T06:14:20;4568;4568;
72485;PMS5003;60509;47.308;-122.428;2022-12-08T06:16:45;4588;4588;
72485;PMS5003;60509;47.308;-122.428;2022-12-08T06:19:11;4582;4582;
72485;PMS5003;60509;47.308;-122.428;2022-12-08T06:21:37;4588;4588;
72485;PMS5003;60509;47.308;-122.428;2022-12-08T06:24:02;4609;4609;
72485;PMS5003;60509;47.308;-122.428;2022-12-08T06:26:27;4615;4615;
72485;PMS5003;60509;47.308;-122.428;2022-12-08T06:28:53;4602;4602;
72485;PMS5003;60509;47.308;-122.428;2022-12-08T06:31:19;4562;4562;
72485;PMS5003;60509;47.308;-122.428;2022-12-08T06:33:44;4595;4595;
72485;PMS5003;60509;47.308;-122.428;2022-12-08T06:36:10;4588;4588;
72485;PMS5003;60509;47.308;-122.428;2022-12-08T06:38:35;4595;4595;
72485;PMS5003;60509;47.308;-122.428;2022-12-08T06:41:01;4575;4575;
72485;PMS5003;60509;47.308;-122.428;2022-12-08T06:43:26;4588;4588;
72485;PMS5003;60509;47.308;-122.428;2022-12-08T06:45:52;4582;4582;
72485;PMS5003;60509;47.308;-122.428;2022-12-08T06:48:18;4582;4582;
72485;PMS5003;60509;47.308;-122.428;2022-12-08T06:50:43;4575;4575;
72485;PMS5003;60509;47.308;-122.428;2022-12-08T06:53:10;4582;4582;
72485;PMS5003;60509;47.308;-122.428;2022-12-08T06:55:34;4588;4588;
72485;PMS5003;60509;47.308;-122.428;2022-12-08T06:57:59;4588;4588;
72485;PMS5003;60509;47.308;-122.428;2022-12-08T07:00:25;4609;4609;
72485;PMS5003;60509;47.308;-122.428;2022-12-08T07:02:50;4615;4615;
72485;PMS5003;60509;47.308;-122.428;2022-12-08T07:05:16;4609;4609;
72485;PMS5003;60509;47.308;-122.428;2022-12-08T07:07:41;4582;4582;
72485;PMS5003;60509;47.308;-122.428;2022-12-08T07:10:07;4575;4575;
72485;PMS5003;60509;47.308;-122.428;2022-12-08T07:12:32;4582;4582;
72485;PMS5003;60509;47.308;-122.428;2022-12-08T07:14:58;4595;4595;
72485;PMS5003;60509;47.308;-122.428;2022-12-08T07:17:23;4602;4602;
72485;PMS5003;60509;47.308;-122.428;2022-12-08T07:19:49;4609;4609;
72485;PMS5003;60509;47.308;-122.428;2022-12-08T07:22:15;4615;4615;
72485;PMS5003;60509;47.308;-122.428;2022-12-08T07:24:40;4568;4568;
72485;PMS5003;60509;47.308;-122.428;2022-12-08T07:27:06;4602;4602;
72485;PMS5003;60509;47.308;-122.428;2022-12-08T07:29:31;4609;4609;
72485;PMS5003;60509;47.308;-122.428;2022-12-08T07:31:57;4582;4582;
72485;PMS5003;60509;47.308;-122.428;2022-12-08T07:34:22;4588;4588;
72485;PMS5003;60509;47.308;-122.428;2022-12-08T07:36:48;4575;4575;
72485;PMS5003;60509;47.308;-122.428;2022-12-08T07:39:13;4568;4568;
72485;PMS5003;60509;47.308;-122.428;2022-12-08T07:41:39;4562;4562;
72485;PMS5003;60509;47.308;-122.428;2022-12-08T07:44:04;4575;4575;
72485;PMS5003;60509;47.308;-122.428;2022-12-08T07:46:30;4568;4568;
72485;PMS5003;60509;47.308;-122.428;2022-12-08T07:48:55;4602;4602;
72485;PMS5003;60509;47.308;-122.428;2022-12-08T07:51:21;4582;4582;
72485;PMS5003;60509;47.308;-122.428;2022-12-08T07:53:47;4602;4602;
72485;PMS5003;60509;47.308;-122.428;2022-12-08T07:56:12;4609;4609;
72485;PMS5003;60509;47.308;-122.428;2022-12-08T07:58:37;4609;4609;
72485;PMS5003;60509;47.308;-122.428;2022-12-08T08:01:03;4582;4582;
72485;PMS5003;60509;47.308;-122.428;2022-12-08T08:03:28;4622;4622;
72485;PMS5003;60509;47.308;-122.428;2022-12-08T08:05:54;4629;4629;
72485;PMS5003;60509;47.308;-122.428;2022-12-08T08:08:19;4636;4636;
72485;PMS5003;60509;47.308;-122.428;2022-12-08T08:10:45;4629;4629;
72485;PMS5003;60509;47.308;-122.428;2022-12-08T08:13:10;4615;4615;
72485;PMS5003;60509;47.308;-122.428;2022-12-08T08:15:36;4622;4622;
72485;PMS5003;60509;47.308;-122.428;2022-12-08T08:18:01;4622;4622;
72485;PMS5003;60509;47.308;-122.428;2022-12-08T08:20:27;4555;4555;
72485;PMS5003;60509;47.308;-122.428;2022-12-08T08:22:52;4588;4588;
72485;PMS5003;60509;47.308;-122.428;2022-12-08T08:25:18;4588;4588;
72485;PMS5003;60509;47.308;-122.428;2022-12-08T08:27:43;4575;4575;
72485;PMS5003;60509;47.308;-122.428;2022-12-08T08:30:10;4582;4582;
72485;PMS5003;60509;47.308;-122.428;2022-12-08T08:32:34;4588;4588;
72485;PMS5003;60509;47.308;-122.428;2022-12-08T08:35:00;4588;4588;
72485;PMS5003;60509;47.308;-122.428;2022-12-08T08:37:25;4602;4602;
72485;PMS5003;60509;47.308;-122.428;2022-12-08T08:39:50;4575;4575;
72485;PMS5003;60509;47.308;-122.428;2022-12-08T08:42:16;4602;4602;
72485;PMS5003;60509;47.308;-122.428;2022-12-08T08:44:42;4588;4588;
72485;PMS5003;60509;47.308;-122.428;2022-12-08T08:47:07;4595;4595;
72485;PMS5003;60509;47.308;-122.428;2022-12-08T08:49:33;4582;4582;
72485;PMS5003;60509;47.308;-122.428;2022-12-08T08:51:58;4588;4588;
72485;PMS5003;60509;47.308;-122.428;2022-12-08T08:54:23;4602;4602;
72485;PMS5003;60509;47.308;-122.428;2022-12-08T08:56:49;4602;4602;
72485;PMS5003;60509;47.308;-122.428;2022-12-08T08:59:14;4588;4588;
72485;PMS5003;60509;47.308;-122.428;2022-12-08T09:01:40;4588;4588;
72485;PMS5003;60509;47.308;-122.428;2022-12-08T09:04:06;4582;4582;
72485;PMS5003;60509;47.308;-122.428;2022-12-08T09:06:31;4588;4588;
72485;PMS5003;60509;47.308;-122.428;2022-12-08T09:08:57;4595;4595;
72485;PMS5003;60509;47.308;-122.428;2022-12-08T09:11:22;4588;4588;
72485;PMS5003;60509;47.308;-122.428;2022-12-08T09:13:48;4562;4562;
72485;PMS5003;60509;47.308;-122.428;2022-12-08T09:16:13;4509;4509;
72485;PMS5003;60509;47.308;-122.428;2022-12-08T09:18:39;4582;4582;
72485;PMS5003;60509;47.308;-122.428;2022-12-08T09:21:05;4629;4629;
72485;PMS5003;60509;47.308;-122.428;2022-12-08T09:23:30;4609;4609;
72485;PMS5003;60509;47.308;-122.428;2022-12-08T09:25:55;4622;4622;
72485;PMS5003;60509;47.308;-122.428;2022-12-08T09:28:21;4609;4609;
72485;PMS5003;60509;47.308;-122.428;2022-12-08T09:30:46;4609;4609;
72485;PMS5003;60509;47.308;-122.428;2022-12-08T09:33:12;4602;4602;
72485;PMS5003;60509;47.308;-122.428;2022-12-08T09:35:37;4602;4602;
72485;PMS5003;60509;47.308;-122.428;2022-12-08T09:38:03;4602;4602;
72485;PMS5003;60509;47.308;-122.428;2022-12-08T09:40:29;4602;4602;
72485;PMS5003;60509;47.308;-122.428;2022-12-08T09:42:56;4588;4588;
72485;PMS5003;60509;47.308;-122.428;2022-12-08T09:45:20;4595;4595;
72485;PMS5003;60509;47.308;-122.428;2022-12-08T09:47:46;4588;4588;
72485;PMS5003;60509;47.308;-122.428;2022-12-08T09:50:13;4582;4582;
72485;PMS5003;60509;47.308;-122.428;2022-12-08T09:52:38;4595;4595;
72485;PMS5003;60509;47.308;-122.428;2022-12-08T09:55:03;4582;4582;
72485;PMS5003;60509;47.308;-122.428;2022-12-08T09:57:28;4555;4555;
72485;PMS5003;60509;47.308;-122.428;2022-12-08T09:59:54;4568;4568;
72485;PMS5003;60509;47.308;-122.428;2022-12-08T10:02:20;4562;4562;
72485;PMS5003;60509;47.308;-122.428;2022-12-08T10:04:44;4555;4555;
72485;PMS5003;60509;47.308;-122.428;2022-12-08T10:07:12;4522;4522;
72485;PMS5003;60509;47.308;-122.428;2022-12-08T10:09:37;4548;4548;
72485;PMS5003;60509;47.308;-122.428;2022-12-08T10:12:03;4542;4542;
72485;PMS5003;60509;47.308;-122.428;2022-12-08T10:14:28;4555;4555;
72485;PMS5003;60509;47.308;-122.428;2022-12-08T10:16:53;4502;4502;
72485;PMS5003;60509;47.308;-122.428;2022-12-08T10:19:19;4588;4588;
72485;PMS5003;60509;47.308;-122.428;2022-12-08T10:21:43;4588;4588;
72485;PMS5003;60509;47.308;-122.428;2022-12-08T10:24:11;4575;4575;
72485;PMS5003;60509;47.308;-122.428;2022-12-08T10:26:34;4575;4575;
72485;PMS5003;60509;47.308;-122.428;2022-12-08T10:29:00;4582;4582;
72485;PMS5003;60509;47.308;-122.428;2022-12-08T10:31:25;4595;4595;
72485;PMS5003;60509;47.308;-122.428;2022-12-08T10:33:54;4582;4582;
72485;PMS5003;60509;47.308;-122.428;2022-12-08T10:36:16;4595;4595;
72485;PMS5003;60509;47.308;-122.428;2022-12-08T10:38:42;4588;4588;
72485;PMS5003;60509;47.308;-122.428;2022-12-08T10:41:11;4575;4575;
72485;PMS5003;60509;47.308;-122.428;2022-12-08T10:43:33;4582;4582;
72485;PMS5003;60509;47.308;-122.428;2022-12-08T10:46:06;4575;4575;
72485;PMS5003;60509;47.308;-122.428;2022-12-08T10:48:25;4568;4568;
72485;PMS5003;60509;47.308;-122.428;2022-12-08T10:50:52;4588;4588;
72485;PMS5003;60509;47.308;-122.428;2022-12-08T10:53:18;4588;4588;
72485;PMS5003;60509;47.308;-122.428;2022-12-08T10:55:42;4595;4595;
72485;PMS5003;60509;47.308;-122.428;2022-12-08T10:58:22;4622;4622;
72485;PMS5003;60509;47.308;-122.428;2022-12-08T11:00:32;4629;4629;
72485;PMS5003;60509;47.308;-122.428;2022-12-08T11:02:58;4629;4629;
72485;PMS5003;60509;47.308;-122.428;2022-12-08T11:05:25;4615;4615;
72485;PMS5003;60509;47.308;-122.428;2022-12-08T11:07:49;4615;4615;
72485;PMS5003;60509;47.308;-122.428;2022-12-08T11:10:15;4595;4595;
72485;PMS5003;60509;47.308;-122.428;2022-12-08T11:12:39;4588;4588;
72485;PMS5003;60509;47.308;-122.428;2022-12-08T11:15:05;4602;4602;
72485;PMS5003;60509;47.308;-122.428;2022-12-08T11:17:34;4643;4643;
72485;PMS5003;60509;47.308;-122.428;2022-12-08T11:19:57;4615;4615;
72485;PMS5003;60509;47.308;-122.428;2022-12-08T11:22:23;4636;4636;
72485;PMS5003;60509;47.308;-122.428;2022-12-08T11:24:51;4615;4615;
72485;PMS5003;60509;47.308;-122.428;2022-12-08T11:27:12;4602;4602;
72485;PMS5003;60509;47.308;-122.428;2022-12-08T11:29:38;4609;4609;
72485;PMS5003;60509;47.308;-122.428;2022-12-08T11:32:05;4595;4595;
72485;PMS5003;60509;47.308;-122.428;2022-12-08T11:34:31;4595;4595;
72485;PMS5003;60509;47.308;-122.428;2022-12-08T11:36:54;4575;4575;
72485;PMS5003;60509;47.308;-122.428;2022-12-08T11:39:20;4575;4575;
72485;PMS5003;60509;47.308;-122.428;2022-12-08T11:41:46;4535;4535;
72485;PMS5003;60509;47.308;-122.428;2022-12-08T11:44:14;4555;4555;
72485;PMS5003;60509;47.308;-122.428;2022-12-08T11:46:37;4562;4562;
72485;PMS5003;60509;47.308;-122.428;2022-12-08T11:49:03;4562;4562;
72485;PMS5003;60509;47.308;-122.428;2022-12-08T11:51:29;4562;4562;
72485;PMS5003;60509;47.308;-122.428;2022-12-08T11:53:58;4562;4562;
72485;PMS5003;60509;47.308;-122.428;2022-12-08T11:56:20;4555;4555;
72485;PMS5003;60509;47.308;-122.428;2022-12-08T11:58:45;4575;4575;
72485;PMS5003;60509;47.308;-122.428;2022-12-08T12:01:12;4562;4562;
72485;PMS5003;60509;47.308;-122.428;2022-12-08T12:03:36;4555;4555;
72485;PMS5003;60509;47.308;-122.428;2022-12-08T12:06:06;4548;4548;
72485;PMS5003;60509;47.308;-122.428;2022-12-08T12:08:30;4542;4542;
72485;PMS5003;60509;47.308;-122.428;2022-12-08T12:10:54;4555;4555;
72485;PMS5003;60509;47.308;-122.428;2022-12-08T12:13:22;4568;4568;
72485;PMS5003;60509;47.308;-122.428;2022-12-08T12:15:52;4582;4582;
72485;PMS5003;60509;47.308;-122.428;2022-12-08T12:18:09;4582;4582;
72485;PMS5003;60509;47.308;-122.428;2022-12-08T12:20:34;4542;4542;
72485;PMS5003;60509;47.308;-122.428;2022-12-08T12:23:00;4562;4562;
72485;PMS5003;60509;47.308;-122.428;2022-12-08T12:25:25;4555;4555;
72485;PMS5003;60509;47.308;-122.428;2022-12-08T12:27:51;4555;4555;
72485;PMS5003;60509;47.308;-122.428;2022-12-08T12:30:18;4548;4548;
72485;PMS5003;60509;47.308;-122.428;2022-12-08T12:32:43;4522;4522;
72485;PMS5003;60509;47.308;-122.428;2022-12-08T12:35:12;4562;4562;
72485;PMS5003;60509;47.308;-122.428;2022-12-08T12:37:34;4562;4562;
72485;PMS5003;60509;47.308;-122.428;2022-12-08T12:39:59;4568;4568;
72485;PMS5003;60509;47.308;-122.428;2022-12-08T12:42:40;4588;4588;
72485;PMS5003;60509;47.308;-122.428;2022-12-08T12:44:49;4582;4582;
72485;PMS5003;60509;47.308;-122.428;2022-12-08T12:47:43;4562;4562;
72485;PMS5003;60509;47.308;-122.428;2022-12-08T12:50:13;4548;4548;
72485;PMS5003;60509;47.308;-122.428;2022-12-08T12:52:09;4548;4548;
72485;PMS5003;60509;47.308;-122.428;2022-12-08T12:54:32;4595;4595;
72485;PMS5003;60509;47.308;-122.428;2022-12-08T12:57:13;4602;4602;
72485;PMS5003;60509;47.308;-122.428;2022-12-08T12:59:33;4609;4609;
72485;PMS5003;60509;47.308;-122.428;2022-12-08T13:01:50;4602;4602;
72485;PMS5003;60509;47.308;-122.428;2022-12-08T13:04:14;4602;4602;
72485;PMS5003;60509;47.308;-122.428;2022-12-08T13:06:40;4582;4582;
72485;PMS5003;60509;47.308;-122.428;2022-12-08T13:09:05;4602;4602;
72485;PMS5003;60509;47.308;-122.428;2022-12-08T13:11:35;4609;4609;
72485;PMS5003;60509;47.308;-122.428;2022-12-08T13:13:56;4615;4615;
72485;PMS5003;60509;47.308;-122.428;2022-12-08T13:16:23;4609;4609;
72485;PMS5003;60509;47.308;-122.428;2022-12-08T13:18:47;4595;4595;
72485;PMS5003;60509;47.308;-122.428;2022-12-08T13:21:13;4575;4575;
72485;PMS5003;60509;47.308;-122.428;2022-12-08T13:23:42;4528;4528;
72485;PMS5003;60509;47.308;-122.428;2022-12-08T13:26:13;4562;4562;
72485;PMS5003;60509;47.308;-122.428;2022-12-08T13:28:29;4568;4568;
72485;PMS5003;60509;47.308;-122.428;2022-12-08T13:30:56;4548;4548;
72485;PMS5003;60509;47.308;-122.428;2022-12-08T13:33:22;4528;4528;
72485;PMS5003;60509;47.308;-122.428;2022-12-08T13:35:48;4515;4515;
72485;PMS5003;60509;47.308;-122.428;2022-12-08T13:38:12;4522;4522;
72485;PMS5003;60509;47.308;-122.428;2022-12-08T13:40:36;4515;4515;
72485;PMS5003;60509;47.308;-122.428;2022-12-08T13:43:05;4489;4489;
72485;PMS5003;60509;47.308;-122.428;2022-12-08T13:45:27;4509;4509;
72485;PMS5003;60509;47.308;-122.428;2022-12-08T13:47:55;4502;4502;
72485;PMS5003;60509;47.308;-122.428;2022-12-08T13:50:20;4509;4509;
72485;PMS5003;60509;47.308;-122.428;2022-12-08T13:50:23;4509;4509;
72485;PMS5003;60509;47.308;-122.428;2022-12-08T13:52:49;4483;4483;
72485;PMS5003;60509;47.308;-122.428;2022-12-08T13:55:14;4489;4489;
72485;PMS5003;60509;47.308;-122.428;2022-12-08T13:57:39;4438;4438;
72485;PMS5003;60509;47.308;-122.428;2022-12-08T14:00:05;4496;4496;
72485;PMS5003;60509;47.308;-122.428;2022-12-08T14:02:32;4483;4483;
72485;PMS5003;60509;47.308;-122.428;2022-12-08T14:04:55;4489;4489;
72485;PMS5003;60509;47.308;-122.428;2022-12-08T14:07:21;4470;4470;
72485;PMS5003;60509;47.308;-122.428;2022-12-08T14:09:47;4483;4483;
72485;PMS5003;60509;47.308;-122.428;2022-12-08T14:12:16;4489;4489;
72485;PMS5003;60509;47.308;-122.428;2022-12-08T14:14:39;4451;4451;
72485;PMS5003;60509;47.308;-122.428;2022-12-08T14:17:04;4483;4483;
72485;PMS5003;60509;47.308;-122.428;2022-12-08T14:19:30;4477;4477;
72485;PMS5003;60509;47.308;-122.428;2022-12-08T14:21:56;4483;4483;